sensor_id;sensor_type;location;lat;lon;timestamp;temperature;humidity
20446;DHT22;10382;49.140;9.234;2023-06-10T00:00:13;20.00;99.90
20446;DHT22;10382;49.140;9.234;2023-06-10T00:02:41;20.00;99.90
20446;DHT22;10382;49.140;9.234;2023-06-10T00:05:09;19.90;99.90
20446;DHT22;10382;49.140;9.234;2023-06-10T00:07:38;19.90;99.90
20446;DHT22;10382;49.140;9.234;2023-06-10T00:10:07;19.90;99.90
20446;DHT22;10382;49.140;9.234;2023-06-10T00:12:36;19.80;99.90
20446;DHT22;10382;49.140;9.234;2023-06-10T00:15:05;19.80;99.90
20446;DHT22;10382;49.140;9.234;2023-06-10T00:17:32;19.70;99.90
20446;DHT22;10382;49.140;9.234;2023-06-10T00:19:59;19.70;99.90
20446;DHT22;10382;49.140;9.234;2023-06-10T00:22:25;19.60;99.90
20446;DHT22;10382;49.140;9.234;2023-06-10T00:24:56;19.50;99.90
20446;DHT22;10382;49.140;9.234;2023-06-10T00:27:24;19.50;99.90
20446;DHT22;10382;49.140;9.234;2023-06-10T00:29:56;19.40;99.90
20446;DHT22;10382;49.140;9.234;2023-06-10T00:32:23;19.40;99.90
20446;DHT22;10382;49.140;9.234;2023-06-10T00:34:50;19.30;99.90
20446;DHT22;10382;49.140;9.234;2023-06-10T00:37:17;19.30;99.90
20446;DHT22;10382;49.140;9.234;2023-06-10T00:39:43;19.30;99.90
20446;DHT22;10382;49.140;9.234;2023-06-10T00:42:12;19.30;99.90
20446;DHT22;10382;49.140;9.234;2023-06-10T00:44:38;19.30;99.90
20446;DHT22;10382;49.140;9.234;2023-06-10T00:47:06;19.30;99.90
20446;DHT22;10382;49.140;9.234;2023-06-10T00:49:34;19.30;99.90
20446;DHT22;10382;49.140;9.234;2023-06-10T00:52:01;19.30;99.90
20446;DHT22;10382;49.140;9.234;2023-06-10T00:54:30;19.30;99.90
20446;DHT22;10382;49.140;9.234;2023-06-10T00:56:57;19.30;99.90
20446;DHT22;10382;49.140;9.234;2023-06-10T00:59:25;19.30;99.90
20446;DHT22;10382;49.140;9.234;2023-06-10T01:01:52;19.30;99.90
20446;DHT22;10382;49.140;9.234;2023-06-10T01:04:19;19.30;99.90
20446;DHT22;10382;49.140;9.234;2023-06-10T01:06:52;19.40;99.90
20446;DHT22;10382;49.140;9.234;2023-06-10T01:09:28;19.40;99.90
20446;DHT22;10382;49.140;9.234;2023-06-10T01:12:02;19.40;99.90
20446;DHT22;10382;49.140;9.234;2023-06-10T01:14:36;19.40;99.90
20446;DHT22;10382;49.140;9.234;2023-06-10T01:17:04;19.40;99.90
20446;DHT22;10382;49.140;9.234;2023-06-10T01:19:32;19.40;99.90
20446;DHT22;10382;49.140;9.234;2023-06-10T01:22:00;19.50;99.90
20446;DHT22;10382;49.140;9.234;2023-06-10T01:24:27;19.50;99.90
20446;DHT22;10382;49.140;9.234;2023-06-10T01:27:00;19.50;99.90
20446;DHT22;10382;49.140;9.234;2023-06-10T01:29:32;19.60;99.90
20446;DHT22;10382;49.140;9.234;2023-06-10T01:32:05;19.60;99.90
20446;DHT22;10382;49.140;9.234;2023-06-10T01:34:33;19.60;99.90
20446;DHT22;10382;49.140;9.234;2023-06-10T01:37:04;19.60;99.90
20446;DHT22;10382;49.140;9.234;2023-06-10T01:39:32;19.60;99.90
20446;DHT22;10382;49.140;9.234;2023-06-10T01:41:59;19.70;99.90
20446;DHT22;10382;49.140;9.234;2023-06-10T01:44:27;19.80;99.90
20446;DHT22;10382;49.140;9.234;2023-06-10T01:46:54;19.90;99.90
20446;DHT22;10382;49.140;9.234;2023-06-10T01:49:21;19.90;99.90
20446;DHT22;10382;49.140;9.234;2023-06-10T01:51:49;20.00;99.90
20446;DHT22;10382;49.140;9.234;2023-06-10T01:54:17;20.10;99.90
20446;DHT22;10382;49.140;9.234;2023-06-10T01:56:44;20.10;99.90
20446;DHT22;10382;49.140;9.234;2023-06-10T01:59:11;20.10;99.90
20446;DHT22;10382;49.140;9.234;2023-06-10T02:01:38;20.10;99.90
20446;DHT22;10382;49.140;9.234;2023-06-10T02:04:05;20.10;99.90
20446;DHT22;10382;49.140;9.234;2023-06-10T02:06:32;20.10;99.90
20446;DHT22;10382;49.140;9.234;2023-06-10T02:09:00;20.10;99.90
20446;DHT22;10382;49.140;9.234;2023-06-10T02:11:28;20.10;99.90
20446;DHT22;10382;49.140;9.234;2023-06-10T02:13:55;20.00;99.90
20446;DHT22;10382;49.140;9.234;2023-06-10T02:16:21;19.90;99.90
20446;DHT22;10382;49.140;9.234;2023-06-10T02:18:48;19.80;99.90
20446;DHT22;10382;49.140;9.234;2023-06-10T02:21:15;19.80;99.90
20446;DHT22;10382;49.140;9.234;2023-06-10T02:23:42;19.70;99.90
20446;DHT22;10382;49.140;9.234;2023-06-10T02:26:09;19.70;99.90
20446;DHT22;10382;49.140;9.234;2023-06-10T02:28:37;19.60;99.90
20446;DHT22;10382;49.140;9.234;2023-06-10T02:31:04;19.60;99.90
20446;DHT22;10382;49.140;9.234;2023-06-10T02:33:31;19.50;99.90
20446;DHT22;10382;49.140;9.234;2023-06-10T02:35:59;19.50;99.90
20446;DHT22;10382;49.140;9.234;2023-06-10T02:38:26;19.50;99.90
20446;DHT22;10382;49.140;9.234;2023-06-10T02:40:52;19.40;99.90
20446;DHT22;10382;49.140;9.234;2023-06-10T02:43:19;19.50;99.90
20446;DHT22;10382;49.140;9.234;2023-06-10T02:45:48;19.50;99.90
20446;DHT22;10382;49.140;9.234;2023-06-10T02:48:15;19.50;99.90
20446;DHT22;10382;49.140;9.234;2023-06-10T02:50:41;19.40;99.90
20446;DHT22;10382;49.140;9.234;2023-06-10T02:53:08;19.40;99.90
20446;DHT22;10382;49.140;9.234;2023-06-10T02:55:35;19.30;99.90
20446;DHT22;10382;49.140;9.234;2023-06-10T02:58:02;19.30;99.90
20446;DHT22;10382;49.140;9.234;2023-06-10T03:00:29;19.20;99.90
20446;DHT22;10382;49.140;9.234;2023-06-10T03:02:57;19.20;99.90
20446;DHT22;10382;49.140;9.234;2023-06-10T03:05:28;19.20;99.90
20446;DHT22;10382;49.140;9.234;2023-06-10T03:07:55;19.20;99.90
20446;DHT22;10382;49.140;9.234;2023-06-10T03:10:22;19.20;99.90
20446;DHT22;10382;49.140;9.234;2023-06-10T03:12:48;19.10;99.90
20446;DHT22;10382;49.140;9.234;2023-06-10T03:15:15;19.10;99.90
20446;DHT22;10382;49.140;9.234;2023-06-10T03:17:42;19.10;99.90
20446;DHT22;10382;49.140;9.234;2023-06-10T03:20:12;19.00;99.90
20446;DHT22;10382;49.140;9.234;2023-06-10T03:22:41;19.00;99.90
20446;DHT22;10382;49.140;9.234;2023-06-10T03:25:08;19.00;99.90
20446;DHT22;10382;49.140;9.234;2023-06-10T03:27:39;19.00;99.90
20446;DHT22;10382;49.140;9.234;2023-06-10T03:30:07;18.90;99.90
20446;DHT22;10382;49.140;9.234;2023-06-10T03:32:34;18.90;99.90
20446;DHT22;10382;49.140;9.234;2023-06-10T03:35:02;18.90;99.90
20446;DHT22;10382;49.140;9.234;2023-06-10T03:37:30;18.90;99.90
20446;DHT22;10382;49.140;9.234;2023-06-10T03:39:57;18.90;99.90
20446;DHT22;10382;49.140;9.234;2023-06-10T03:42:24;19.00;99.90
20446;DHT22;10382;49.140;9.234;2023-06-10T03:44:51;19.00;99.90
20446;DHT22;10382;49.140;9.234;2023-06-10T03:47:18;19.00;99.90
20446;DHT22;10382;49.140;9.234;2023-06-10T03:49:45;19.00;99.90
20446;DHT22;10382;49.140;9.234;2023-06-10T03:52:11;19.10;99.90
20446;DHT22;10382;49.140;9.234;2023-06-10T03:54:40;19.10;99.90
20446;DHT22;10382;49.140;9.234;2023-06-10T03:57:07;19.10;99.90
20446;DHT22;10382;49.140;9.234;2023-06-10T03:59:33;19.10;99.90
20446;DHT22;10382;49.140;9.234;2023-06-10T04:02:00;19.10;99.90
20446;DHT22;10382;49.140;9.234;2023-06-10T04:04:27;19.20;99.90
20446;DHT22;10382;49.140;9.234;2023-06-10T04:06:54;19.20;99.90
20446;DHT22;10382;49.140;9.234;2023-06-10T04:09:21;19.30;99.90
20446;DHT22;10382;49.140;9.234;2023-06-10T04:11:49;19.30;99.90
20446;DHT22;10382;49.140;9.234;2023-06-10T04:14:16;19.40;99.90
20446;DHT22;10382;49.140;9.234;2023-06-10T04:16:43;19.40;99.90
20446;DHT22;10382;49.140;9.234;2023-06-10T04:19:09;19.40;99.90
20446;DHT22;10382;49.140;9.234;2023-06-10T04:21:36;19.50;99.90
20446;DHT22;10382;49.140;9.234;2023-06-10T04:24:04;19.60;99.90
20446;DHT22;10382;49.140;9.234;2023-06-10T04:26:31;19.70;99.90
20446;DHT22;10382;49.140;9.234;2023-06-10T04:28:59;19.70;99.90
20446;DHT22;10382;49.140;9.234;2023-06-10T04:31:26;19.80;99.90
20446;DHT22;10382;49.140;9.234;2023-06-10T04:33:53;20.00;99.90
20446;DHT22;10382;49.140;9.234;2023-06-10T04:36:20;20.10;99.90
20446;DHT22;10382;49.140;9.234;2023-06-10T04:38:47;20.20;99.90
20446;DHT22;10382;49.140;9.234;2023-06-10T04:41:14;20.30;99.90
20446;DHT22;10382;49.140;9.234;2023-06-10T04:43:40;20.40;99.90
20446;DHT22;10382;49.140;9.234;2023-06-10T04:46:09;20.50;99.90
20446;DHT22;10382;49.140;9.234;2023-06-10T04:48:36;20.70;99.90
20446;DHT22;10382;49.140;9.234;2023-06-10T04:51:03;20.80;99.90
20446;DHT22;10382;49.140;9.234;2023-06-10T04:53:30;21.00;99.90
20446;DHT22;10382;49.140;9.234;2023-06-10T04:55:57;21.10;99.90
20446;DHT22;10382;49.140;9.234;2023-06-10T04:58:24;21.10;99.90
20446;DHT22;10382;49.140;9.234;2023-06-10T05:00:51;21.20;99.90
20446;DHT22;10382;49.140;9.234;2023-06-10T05:03:19;21.20;99.90
20446;DHT22;10382;49.140;9.234;2023-06-10T05:05:46;21.30;99.90
20446;DHT22;10382;49.140;9.234;2023-06-10T05:08:13;21.50;99.90
20446;DHT22;10382;49.140;9.234;2023-06-10T05:10:40;21.60;99.90
20446;DHT22;10382;49.140;9.234;2023-06-10T05:13:07;21.60;99.90
20446;DHT22;10382;49.140;9.234;2023-06-10T05:15:34;21.40;99.90
20446;DHT22;10382;49.140;9.234;2023-06-10T05:18:00;21.30;99.90
20446;DHT22;10382;49.140;9.234;2023-06-10T05:20:30;21.20;99.90
20446;DHT22;10382;49.140;9.234;2023-06-10T05:22:57;21.30;99.90
20446;DHT22;10382;49.140;9.234;2023-06-10T05:25:25;21.40;99.90
20446;DHT22;10382;49.140;9.234;2023-06-10T05:27:52;21.70;99.90
20446;DHT22;10382;49.140;9.234;2023-06-10T05:30:19;21.80;99.90
20446;DHT22;10382;49.140;9.234;2023-06-10T05:32:47;22.00;99.90
20446;DHT22;10382;49.140;9.234;2023-06-10T05:35:14;22.10;99.90
20446;DHT22;10382;49.140;9.234;2023-06-10T05:37:42;22.30;99.90
20446;DHT22;10382;49.140;9.234;2023-06-10T05:40:10;22.50;99.90
20446;DHT22;10382;49.140;9.234;2023-06-10T05:42:37;22.40;99.90
20446;DHT22;10382;49.140;9.234;2023-06-10T05:45:06;22.30;99.90
20446;DHT22;10382;49.140;9.234;2023-06-10T05:47:33;22.30;99.90
20446;DHT22;10382;49.140;9.234;2023-06-10T05:49:59;22.30;99.90
20446;DHT22;10382;49.140;9.234;2023-06-10T05:52:27;22.30;99.90
20446;DHT22;10382;49.140;9.234;2023-06-10T05:54:55;22.40;99.90
20446;DHT22;10382;49.140;9.234;2023-06-10T05:57:22;22.50;99.90
20446;DHT22;10382;49.140;9.234;2023-06-10T05:59:48;22.60;99.90
20446;DHT22;10382;49.140;9.234;2023-06-10T06:02:15;22.80;99.90
20446;DHT22;10382;49.140;9.234;2023-06-10T06:04:42;23.00;99.90
20446;DHT22;10382;49.140;9.234;2023-06-10T06:07:09;23.00;99.90
20446;DHT22;10382;49.140;9.234;2023-06-10T06:09:36;23.20;99.90
20446;DHT22;10382;49.140;9.234;2023-06-10T06:12:05;23.40;99.90
20446;DHT22;10382;49.140;9.234;2023-06-10T06:14:36;23.50;99.90
20446;DHT22;10382;49.140;9.234;2023-06-10T06:17:03;23.60;99.90
20446;DHT22;10382;49.140;9.234;2023-06-10T06:19:30;23.60;99.90
20446;DHT22;10382;49.140;9.234;2023-06-10T06:21:57;23.60;99.90
20446;DHT22;10382;49.140;9.234;2023-06-10T06:24:24;23.60;99.90
20446;DHT22;10382;49.140;9.234;2023-06-10T06:26:51;23.70;99.90
20446;DHT22;10382;49.140;9.234;2023-06-10T06:29:19;23.80;99.90
20446;DHT22;10382;49.140;9.234;2023-06-10T06:31:46;24.10;99.90
20446;DHT22;10382;49.140;9.234;2023-06-10T06:34:13;24.50;99.90
20446;DHT22;10382;49.140;9.234;2023-06-10T06:36:40;24.90;99.90
20446;DHT22;10382;49.140;9.234;2023-06-10T06:39:07;25.20;99.90
20446;DHT22;10382;49.140;9.234;2023-06-10T06:41:33;25.50;99.90
20446;DHT22;10382;49.140;9.234;2023-06-10T06:44:00;25.80;99.90
20446;DHT22;10382;49.140;9.234;2023-06-10T06:46:29;26.10;99.90
20446;DHT22;10382;49.140;9.234;2023-06-10T06:48:56;26.50;99.90
20446;DHT22;10382;49.140;9.234;2023-06-10T06:51:23;26.60;99.90
20446;DHT22;10382;49.140;9.234;2023-06-10T06:53:50;26.30;99.90
20446;DHT22;10382;49.140;9.234;2023-06-10T06:56:19;26.40;99.90
20446;DHT22;10382;49.140;9.234;2023-06-10T06:58:46;26.60;99.90
20446;DHT22;10382;49.140;9.234;2023-06-10T07:01:13;26.80;99.90
20446;DHT22;10382;49.140;9.234;2023-06-10T07:03:41;26.90;99.90
20446;DHT22;10382;49.140;9.234;2023-06-10T07:06:08;26.40;99.90
20446;DHT22;10382;49.140;9.234;2023-06-10T07:08:35;26.30;99.90
20446;DHT22;10382;49.140;9.234;2023-06-10T07:11:02;26.50;99.90
20446;DHT22;10382;49.140;9.234;2023-06-10T07:13:29;26.50;99.90
20446;DHT22;10382;49.140;9.234;2023-06-10T07:15:56;26.50;99.90
20446;DHT22;10382;49.140;9.234;2023-06-10T07:18:23;26.50;99.90
20446;DHT22;10382;49.140;9.234;2023-06-10T07:20:51;26.50;99.90
20446;DHT22;10382;49.140;9.234;2023-06-10T07:23:18;26.70;99.90
20446;DHT22;10382;49.140;9.234;2023-06-10T07:25:45;26.80;99.90
20446;DHT22;10382;49.140;9.234;2023-06-10T07:28:11;26.80;99.90
20446;DHT22;10382;49.140;9.234;2023-06-10T07:30:38;27.00;99.90
20446;DHT22;10382;49.140;9.234;2023-06-10T07:33:05;27.10;99.90
20446;DHT22;10382;49.140;9.234;2023-06-10T07:35:33;26.90;99.90
20446;DHT22;10382;49.140;9.234;2023-06-10T07:38:01;26.30;99.90
20446;DHT22;10382;49.140;9.234;2023-06-10T07:40:28;26.40;99.90
20446;DHT22;10382;49.140;9.234;2023-06-10T07:42:55;26.50;99.90
20446;DHT22;10382;49.140;9.234;2023-06-10T07:45:22;26.50;99.90
20446;DHT22;10382;49.140;9.234;2023-06-10T07:47:49;26.70;99.90
20446;DHT22;10382;49.140;9.234;2023-06-10T07:50:16;27.10;99.90
20446;DHT22;10382;49.140;9.234;2023-06-10T07:52:43;27.30;99.90
20446;DHT22;10382;49.140;9.234;2023-06-10T07:55:11;27.20;99.90
20446;DHT22;10382;49.140;9.234;2023-06-10T07:57:38;27.10;99.90
20446;DHT22;10382;49.140;9.234;2023-06-10T08:00:06;27.00;99.90
20446;DHT22;10382;49.140;9.234;2023-06-10T08:02:33;26.80;99.90
20446;DHT22;10382;49.140;9.234;2023-06-10T08:05:00;26.70;99.90
20446;DHT22;10382;49.140;9.234;2023-06-10T08:07:27;26.40;99.90
20446;DHT22;10382;49.140;9.234;2023-06-10T08:09:54;26.50;99.90
20446;DHT22;10382;49.140;9.234;2023-06-10T08:12:22;26.80;99.90
20446;DHT22;10382;49.140;9.234;2023-06-10T08:14:49;27.10;99.90
20446;DHT22;10382;49.140;9.234;2023-06-10T08:17:16;27.10;99.90
20446;DHT22;10382;49.140;9.234;2023-06-10T08:19:43;27.20;99.90
20446;DHT22;10382;49.140;9.234;2023-06-10T08:22:09;27.20;99.90
20446;DHT22;10382;49.140;9.234;2023-06-10T08:24:37;27.10;99.90
20446;DHT22;10382;49.140;9.234;2023-06-10T08:27:04;27.10;99.90
20446;DHT22;10382;49.140;9.234;2023-06-10T08:29:33;27.20;99.90
20446;DHT22;10382;49.140;9.234;2023-06-10T08:32:00;27.30;99.90
20446;DHT22;10382;49.140;9.234;2023-06-10T08:34:27;27.20;99.90
20446;DHT22;10382;49.140;9.234;2023-06-10T08:36:54;27.40;99.90
20446;DHT22;10382;49.140;9.234;2023-06-10T08:39:21;27.80;99.90
20446;DHT22;10382;49.140;9.234;2023-06-10T08:41:56;27.90;99.90
20446;DHT22;10382;49.140;9.234;2023-06-10T08:44:28;28.20;99.90
20446;DHT22;10382;49.140;9.234;2023-06-10T08:46:59;28.50;99.90
20446;DHT22;10382;49.140;9.234;2023-06-10T08:49:26;28.90;99.90
20446;DHT22;10382;49.140;9.234;2023-06-10T08:51:57;29.00;99.20
20446;DHT22;10382;49.140;9.234;2023-06-10T08:54:26;29.10;98.70
20446;DHT22;10382;49.140;9.234;2023-06-10T08:56:55;29.30;97.90
20446;DHT22;10382;49.140;9.234;2023-06-10T08:59:25;29.50;97.20
20446;DHT22;10382;49.140;9.234;2023-06-10T09:01:52;29.70;97.20
20446;DHT22;10382;49.140;9.234;2023-06-10T09:04:21;29.80;96.00
20446;DHT22;10382;49.140;9.234;2023-06-10T09:06:51;30.00;95.60
20446;DHT22;10382;49.140;9.234;2023-06-10T09:09:19;30.00;95.30
20446;DHT22;10382;49.140;9.234;2023-06-10T09:11:46;29.90;94.40
20446;DHT22;10382;49.140;9.234;2023-06-10T09:14:13;29.90;93.70
20446;DHT22;10382;49.140;9.234;2023-06-10T09:16:42;29.30;94.50
20446;DHT22;10382;49.140;9.234;2023-06-10T09:19:11;29.10;94.60
20446;DHT22;10382;49.140;9.234;2023-06-10T09:21:40;28.90;95.90
20446;DHT22;10382;49.140;9.234;2023-06-10T09:24:07;29.00;96.20
20446;DHT22;10382;49.140;9.234;2023-06-10T09:26:34;29.40;95.10
20446;DHT22;10382;49.140;9.234;2023-06-10T09:29:03;29.70;95.60
20446;DHT22;10382;49.140;9.234;2023-06-10T09:31:31;30.00;94.50
20446;DHT22;10382;49.140;9.234;2023-06-10T09:34:06;30.10;93.40
20446;DHT22;10382;49.140;9.234;2023-06-10T09:36:33;29.90;93.70
20446;DHT22;10382;49.140;9.234;2023-06-10T09:39:01;30.00;93.90
20446;DHT22;10382;49.140;9.234;2023-06-10T09:41:35;30.20;92.80
20446;DHT22;10382;49.140;9.234;2023-06-10T09:44:02;30.50;92.10
20446;DHT22;10382;49.140;9.234;2023-06-10T09:46:35;30.80;90.60
20446;DHT22;10382;49.140;9.234;2023-06-10T09:49:02;31.50;89.60
20446;DHT22;10382;49.140;9.234;2023-06-10T09:51:29;32.10;86.70
20446;DHT22;10382;49.140;9.234;2023-06-10T09:53:56;32.30;83.90
20446;DHT22;10382;49.140;9.234;2023-06-10T09:56:34;32.50;82.20
20446;DHT22;10382;49.140;9.234;2023-06-10T09:59:02;32.70;82.40
20446;DHT22;10382;49.140;9.234;2023-06-10T10:01:30;32.70;79.60
20446;DHT22;10382;49.140;9.234;2023-06-10T10:03:59;32.60;80.40
20446;DHT22;10382;49.140;9.234;2023-06-10T10:06:27;32.50;75.30
20446;DHT22;10382;49.140;9.234;2023-06-10T10:08:55;32.30;74.60
20446;DHT22;10382;49.140;9.234;2023-06-10T10:11:23;32.00;75.40
20446;DHT22;10382;49.140;9.234;2023-06-10T10:13:53;32.00;75.90
20446;DHT22;10382;49.140;9.234;2023-06-10T10:16:21;32.00;76.20
20446;DHT22;10382;49.140;9.234;2023-06-10T10:18:53;32.20;75.30
20446;DHT22;10382;49.140;9.234;2023-06-10T10:21:23;32.40;74.50
20446;DHT22;10382;49.140;9.234;2023-06-10T10:23:56;32.50;72.40
20446;DHT22;10382;49.140;9.234;2023-06-10T10:26:26;32.60;73.20
20446;DHT22;10382;49.140;9.234;2023-06-10T10:29:02;32.60;72.10
20446;DHT22;10382;49.140;9.234;2023-06-10T10:31:33;32.60;73.10
20446;DHT22;10382;49.140;9.234;2023-06-10T10:34:04;32.60;70.80
20446;DHT22;10382;49.140;9.234;2023-06-10T10:36:33;32.30;70.60
20446;DHT22;10382;49.140;9.234;2023-06-10T10:39:01;31.80;69.70
20446;DHT22;10382;49.140;9.234;2023-06-10T10:41:30;31.50;72.40
20446;DHT22;10382;49.140;9.234;2023-06-10T10:43:59;31.60;72.20
20446;DHT22;10382;49.140;9.234;2023-06-10T10:46:26;32.00;72.00
20446;DHT22;10382;49.140;9.234;2023-06-10T10:48:53;32.30;69.80
20446;DHT22;10382;49.140;9.234;2023-06-10T10:51:22;32.60;68.00
20446;DHT22;10382;49.140;9.234;2023-06-10T10:54:11;32.70;67.20
20446;DHT22;10382;49.140;9.234;2023-06-10T10:56:39;32.80;67.20
20446;DHT22;10382;49.140;9.234;2023-06-10T10:59:07;32.90;66.00
20446;DHT22;10382;49.140;9.234;2023-06-10T11:01:41;33.00;66.80
20446;DHT22;10382;49.140;9.234;2023-06-10T11:04:11;33.20;66.10
20446;DHT22;10382;49.140;9.234;2023-06-10T11:06:38;33.30;65.20
20446;DHT22;10382;49.140;9.234;2023-06-10T11:09:26;33.30;63.00
20446;DHT22;10382;49.140;9.234;2023-06-10T11:11:57;33.30;65.00
20446;DHT22;10382;49.140;9.234;2023-06-10T11:14:29;33.40;63.20
20446;DHT22;10382;49.140;9.234;2023-06-10T11:16:58;33.60;62.40
20446;DHT22;10382;49.140;9.234;2023-06-10T11:19:35;33.80;62.10
20446;DHT22;10382;49.140;9.234;2023-06-10T11:22:05;34.10;63.50
20446;DHT22;10382;49.140;9.234;2023-06-10T11:24:32;34.00;61.80
20446;DHT22;10382;49.140;9.234;2023-06-10T11:27:18;33.80;59.40
20446;DHT22;10382;49.140;9.234;2023-06-10T11:30:20;33.00;60.30
20446;DHT22;10382;49.140;9.234;2023-06-10T11:32:51;33.10;59.80
20446;DHT22;10382;49.140;9.234;2023-06-10T11:35:19;33.20;60.90
20446;DHT22;10382;49.140;9.234;2023-06-10T11:37:47;33.30;61.10
20446;DHT22;10382;49.140;9.234;2023-06-10T11:40:14;33.50;61.30
20446;DHT22;10382;49.140;9.234;2023-06-10T11:42:42;33.60;59.80
20446;DHT22;10382;49.140;9.234;2023-06-10T11:45:09;33.30;58.00
20446;DHT22;10382;49.140;9.234;2023-06-10T11:47:38;33.20;59.50
20446;DHT22;10382;49.140;9.234;2023-06-10T11:50:05;33.20;60.10
20446;DHT22;10382;49.140;9.234;2023-06-10T11:52:32;33.30;60.90
20446;DHT22;10382;49.140;9.234;2023-06-10T11:55:04;33.40;60.40
20446;DHT22;10382;49.140;9.234;2023-06-10T11:57:34;33.00;58.80
20446;DHT22;10382;49.140;9.234;2023-06-10T12:00:04;33.00;59.60
20446;DHT22;10382;49.140;9.234;2023-06-10T12:02:31;33.20;59.30
20446;DHT22;10382;49.140;9.234;2023-06-10T12:05:11;32.80;59.20
20446;DHT22;10382;49.140;9.234;2023-06-10T12:07:38;32.20;59.40
20446;DHT22;10382;49.140;9.234;2023-06-10T12:10:06;31.90;59.90
20446;DHT22;10382;49.140;9.234;2023-06-10T12:12:34;31.10;61.10
20446;DHT22;10382;49.140;9.234;2023-06-10T12:15:02;31.30;62.30
20446;DHT22;10382;49.140;9.234;2023-06-10T12:17:38;31.60;61.30
20446;DHT22;10382;49.140;9.234;2023-06-10T12:20:06;32.20;60.80
20446;DHT22;10382;49.140;9.234;2023-06-10T12:22:39;32.60;59.20
20446;DHT22;10382;49.140;9.234;2023-06-10T12:25:07;32.70;59.30
20446;DHT22;10382;49.140;9.234;2023-06-10T12:27:35;32.10;59.10
20446;DHT22;10382;49.140;9.234;2023-06-10T12:30:03;31.60;59.40
20446;DHT22;10382;49.140;9.234;2023-06-10T12:32:39;31.40;60.20
20446;DHT22;10382;49.140;9.234;2023-06-10T12:35:07;31.50;60.60
20446;DHT22;10382;49.140;9.234;2023-06-10T12:37:35;31.10;60.10
20446;DHT22;10382;49.140;9.234;2023-06-10T12:40:05;30.60;62.70
20446;DHT22;10382;49.140;9.234;2023-06-10T12:42:33;30.20;62.90
20446;DHT22;10382;49.140;9.234;2023-06-10T12:45:00;30.30;63.60
20446;DHT22;10382;49.140;9.234;2023-06-10T12:47:31;30.50;63.50
20446;DHT22;10382;49.140;9.234;2023-06-10T12:50:00;30.60;62.20
20446;DHT22;10382;49.140;9.234;2023-06-10T12:52:28;30.60;65.30
20446;DHT22;10382;49.140;9.234;2023-06-10T12:54:55;31.10;63.00
20446;DHT22;10382;49.140;9.234;2023-06-10T12:57:23;31.30;62.30
20446;DHT22;10382;49.140;9.234;2023-06-10T12:59:54;31.50;63.10
20446;DHT22;10382;49.140;9.234;2023-06-10T13:02:26;31.50;61.80
20446;DHT22;10382;49.140;9.234;2023-06-10T13:04:52;31.40;62.70
20446;DHT22;10382;49.140;9.234;2023-06-10T13:07:19;31.60;64.10
20446;DHT22;10382;49.140;9.234;2023-06-10T13:09:48;32.00;59.90
20446;DHT22;10382;49.140;9.234;2023-06-10T13:12:15;31.80;61.90
20446;DHT22;10382;49.140;9.234;2023-06-10T13:14:44;32.20;60.00
20446;DHT22;10382;49.140;9.234;2023-06-10T13:17:11;32.00;59.70
20446;DHT22;10382;49.140;9.234;2023-06-10T13:19:38;31.80;60.50
20446;DHT22;10382;49.140;9.234;2023-06-10T13:22:05;31.80;61.00
20446;DHT22;10382;49.140;9.234;2023-06-10T13:24:32;31.70;60.80
20446;DHT22;10382;49.140;9.234;2023-06-10T13:26:59;31.80;61.20
20446;DHT22;10382;49.140;9.234;2023-06-10T13:29:26;31.90;61.40
20446;DHT22;10382;49.140;9.234;2023-06-10T13:31:54;31.70;61.10
20446;DHT22;10382;49.140;9.234;2023-06-10T13:34:21;31.80;61.00
20446;DHT22;10382;49.140;9.234;2023-06-10T13:36:48;31.60;61.50
20446;DHT22;10382;49.140;9.234;2023-06-10T13:39:15;31.40;60.40
20446;DHT22;10382;49.140;9.234;2023-06-10T13:41:42;31.10;61.20
20446;DHT22;10382;49.140;9.234;2023-06-10T13:44:09;31.30;62.30
20446;DHT22;10382;49.140;9.234;2023-06-10T13:46:35;31.70;61.50
20446;DHT22;10382;49.140;9.234;2023-06-10T13:49:04;32.00;58.80
20446;DHT22;10382;49.140;9.234;2023-06-10T13:51:30;31.90;57.90
20446;DHT22;10382;49.140;9.234;2023-06-10T13:53:57;31.50;59.40
20446;DHT22;10382;49.140;9.234;2023-06-10T13:56:24;31.60;59.80
20446;DHT22;10382;49.140;9.234;2023-06-10T13:58:51;31.60;61.90
20446;DHT22;10382;49.140;9.234;2023-06-10T14:01:18;31.70;60.30
20446;DHT22;10382;49.140;9.234;2023-06-10T14:03:45;32.00;60.50
20446;DHT22;10382;49.140;9.234;2023-06-10T14:06:13;32.20;60.60
20446;DHT22;10382;49.140;9.234;2023-06-10T14:08:43;32.60;59.60
20446;DHT22;10382;49.140;9.234;2023-06-10T14:11:10;32.60;60.30
20446;DHT22;10382;49.140;9.234;2023-06-10T14:13:37;32.70;59.40
20446;DHT22;10382;49.140;9.234;2023-06-10T14:16:05;33.00;59.00
20446;DHT22;10382;49.140;9.234;2023-06-10T14:18:32;33.30;57.60
20446;DHT22;10382;49.140;9.234;2023-06-10T14:20:59;33.20;58.30
20446;DHT22;10382;49.140;9.234;2023-06-10T14:23:27;33.40;57.50
20446;DHT22;10382;49.140;9.234;2023-06-10T14:25:54;33.50;57.20
20446;DHT22;10382;49.140;9.234;2023-06-10T14:28:20;33.80;56.20
20446;DHT22;10382;49.140;9.234;2023-06-10T14:30:49;34.00;55.80
20446;DHT22;10382;49.140;9.234;2023-06-10T14:33:16;33.80;55.20
20446;DHT22;10382;49.140;9.234;2023-06-10T14:35:43;33.80;56.00
20446;DHT22;10382;49.140;9.234;2023-06-10T14:38:10;33.60;56.50
20446;DHT22;10382;49.140;9.234;2023-06-10T14:40:38;33.80;56.90
20446;DHT22;10382;49.140;9.234;2023-06-10T14:43:05;33.60;55.00
20446;DHT22;10382;49.140;9.234;2023-06-10T14:45:35;32.60;55.90
20446;DHT22;10382;49.140;9.234;2023-06-10T14:48:02;32.10;56.70
20446;DHT22;10382;49.140;9.234;2023-06-10T14:50:29;31.80;57.50
20446;DHT22;10382;49.140;9.234;2023-06-10T14:52:57;31.40;58.10
20446;DHT22;10382;49.140;9.234;2023-06-10T14:55:24;31.50;58.40
20446;DHT22;10382;49.140;9.234;2023-06-10T14:57:53;31.70;58.10
20446;DHT22;10382;49.140;9.234;2023-06-10T15:00:20;32.10;58.00
20446;DHT22;10382;49.140;9.234;2023-06-10T15:02:49;32.40;58.00
20446;DHT22;10382;49.140;9.234;2023-06-10T15:05:16;32.30;57.60
20446;DHT22;10382;49.140;9.234;2023-06-10T15:07:44;32.40;57.60
20446;DHT22;10382;49.140;9.234;2023-06-10T15:10:11;32.60;58.00
20446;DHT22;10382;49.140;9.234;2023-06-10T15:12:38;32.50;57.80
20446;DHT22;10382;49.140;9.234;2023-06-10T15:15:07;32.60;57.10
20446;DHT22;10382;49.140;9.234;2023-06-10T15:17:34;32.70;56.10
20446;DHT22;10382;49.140;9.234;2023-06-10T15:20:01;32.70;56.00
20446;DHT22;10382;49.140;9.234;2023-06-10T15:22:28;32.70;56.20
20446;DHT22;10382;49.140;9.234;2023-06-10T15:24:55;32.80;56.20
20446;DHT22;10382;49.140;9.234;2023-06-10T15:27:23;33.10;56.50
20446;DHT22;10382;49.140;9.234;2023-06-10T15:29:49;33.30;55.30
20446;DHT22;10382;49.140;9.234;2023-06-10T15:32:18;33.50;56.10
20446;DHT22;10382;49.140;9.234;2023-06-10T15:34:45;33.40;54.90